Time;durP1;ratioP1;P1;durP2;ratioP2;P2;SDS_P1;SDS_P2;PMS_P1;PMS_P2;Temp;Humidity;BMP_temperature;BMP_pressure;BME280_temperature;BME280_humidity;BME280_pressure;Samples;Min_cycle;Max_cycle;Signal;HPM_P1;HPM_P2
2022/01/15 00:01:39;;;;;;;;;;;20.00;42.10;;;;;;5137623;27;20017;-48
2022/01/15 00:04:06;;;;;;;;;;;20.00;42.10;;;;;;5134963;27;19927;-52
2022/01/15 00:06:33;;;;;;;;;;;20.00;42.10;;;;;;5152572;27;19980;-47
2022/01/15 00:09:01;;;;;;;;;;;20.00;42.10;;;;;;5123630;27;19927;-48
2022/01/15 00:11:28;;;;;;;;;;;20.00;42.10;;;;;;5108429;27;19923;-49
2022/01/15 00:13:57;;;;;;;;;;;20.00;42.10;;;;;;5120296;27;19927;-50
2022/01/15 00:16:33;;;;;;;;;;;20.00;42.10;;;;;;5137225;27;19948;-52
2022/01/15 00:19:05;;;;;;;;;;;20.00;42.10;;;;;;5114279;27;19934;-49
2022/01/15 00:21:32;;;;;;;;;;;20.00;42.10;;;;;;5148607;27;19926;-45
2022/01/15 00:24:00;;;;;;;;;;;20.00;42.10;;;;;;5118071;27;19984;-48
2022/01/15 00:26:27;;;;;;;;;;;20.00;42.10;;;;;;5115774;27;19930;-48
2022/01/15 00:28:54;;;;;;;;;;;20.00;42.10;;;;;;5117154;27;20536;-52
2022/01/15 00:31:20;;;;;;;;;;;20.00;42.10;;;;;;5133707;27;19966;-49
2022/01/15 00:33:47;;;;;;;;;;;20.00;42.10;;;;;;5114231;27;19938;-50
2022/01/15 00:36:15;;;;;;;;;;;20.00;42.10;;;;;;5117728;27;19991;-49
2022/01/15 00:38:42;;;;;;;;;;;20.00;42.10;;;;;;5132597;27;19931;-46
2022/01/15 00:41:10;;;;;;;;;;;20.00;42.10;;;;;;5116932;27;19969;-48
2022/01/15 00:43:40;;;;;;;;;;;20.00;42.00;;;;;;5136119;27;20369;-47
2022/01/15 00:46:07;;;;;;;;;;;20.00;42.00;;;;;;5152082;27;19998;-51
2022/01/15 00:48:34;;;;;;;;;;;20.00;42.00;;;;;;5117305;27;19931;-47
2022/01/15 00:51:01;;;;;;;;;;;20.00;42.00;;;;;;5119351;27;20443;-45
2022/01/15 00:53:28;;;;;;;;;;;20.00;42.00;;;;;;5114326;27;19928;-50
2022/01/15 00:55:54;;;;;;;;;;;20.00;42.00;;;;;;5136100;27;19949;-46
2022/01/15 00:58:23;;;;;;;;;;;20.00;42.00;;;;;;5117142;27;20525;-49
2022/01/15 01:00:50;;;;;;;;;;;20.00;42.00;;;;;;5134685;27;19923;-47
2022/01/15 01:03:17;;;;;;;;;;;20.00;42.00;;;;;;5131084;27;20418;-45
2022/01/15 01:05:44;;;;;;;;;;;20.00;42.00;;;;;;5117531;27;20398;-48
2022/01/15 01:08:10;;;;;;;;;;;20.00;42.00;;;;;;5115831;27;19923;-49
2022/01/15 01:13:40;;;;;;;;;;;20.00;42.00;;;;;;5131063;27;20276;-52
2022/01/15 01:24:22;;;;;;;;;;;20.00;42.00;;;;;;5102324;27;19923;-49
2022/01/15 01:26:55;;;;;;;;;;;20.00;42.00;;;;;;5117116;27;19972;-46
2022/01/15 01:29:32;;;;;;;;;;;20.00;42.00;;;;;;5114260;27;20455;-45
2022/01/15 01:32:04;;;;;;;;;;;20.00;42.00;;;;;;5120314;27;19931;-48
2022/01/15 01:34:34;;;;;;;;;;;20.00;42.00;;;;;;5114861;27;20106;-47
2022/01/15 01:37:07;;;;;;;;;;;20.00;41.90;;;;;;5122066;27;19923;-45
2022/01/15 01:39:42;;;;;;;;;;;20.00;42.00;;;;;;5134084;27;19970;-49
2022/01/15 01:42:24;;;;;;;;;;;20.00;41.90;;;;;;5134903;27;19927;-47
2022/01/15 01:44:58;;;;;;;;;;;20.00;41.90;;;;;;5108746;27;19986;-50
2022/01/15 01:47:38;;;;;;;;;;;20.00;41.90;;;;;;5116086;27;19927;-50
2022/01/15 01:50:06;;;;;;;;;;;20.00;41.90;;;;;;5110785;27;19938;-45
2022/01/15 01:52:35;;;;;;;;;;;20.00;41.90;;;;;;5101385;27;20388;-50
2022/01/15 01:55:01;;;;;;;;;;;20.00;41.90;;;;;;5111857;27;20066;-52
2022/01/15 01:57:28;;;;;;;;;;;20.00;41.90;;;;;;5115993;27;19929;-46
2022/01/15 01:59:55;;;;;;;;;;;20.00;41.90;;;;;;5127978;27;19927;-46
2022/01/15 02:02:23;;;;;;;;;;;20.00;41.90;;;;;;5119428;27;19923;-50
2022/01/15 02:04:52;;;;;;;;;;;20.00;41.90;;;;;;5114678;27;19949;-48
2022/01/15 02:07:21;;;;;;;;;;;20.00;41.90;;;;;;5120778;27;19995;-50
2022/01/15 02:09:48;;;;;;;;;;;20.00;41.90;;;;;;5129807;27;19923;-47
2022/01/15 02:12:15;;;;;;;;;;;20.00;41.90;;;;;;5114055;27;19923;-49
2022/01/15 02:14:42;;;;;;;;;;;20.00;41.90;;;;;;5114518;27;19979;-50
2022/01/15 02:17:11;;;;;;;;;;;20.00;41.90;;;;;;5114633;27;20039;-46
2022/01/15 02:19:46;;;;;;;;;;;20.00;41.90;;;;;;5111760;27;19988;-49
2022/01/15 02:25:00;;;;;;;;;;;20.00;41.80;;;;;;5115373;27;20377;-46
2022/01/15 02:27:26;;;;;;;;;;;20.00;41.80;;;;;;5136247;27;20006;-48
2022/01/15 02:29:53;;;;;;;;;;;20.00;41.80;;;;;;5111476;27;20010;-49
2022/01/15 02:32:20;;;;;;;;;;;20.00;41.90;;;;;;5121031;27;20010;-46
2022/01/15 02:34:48;;;;;;;;;;;20.00;41.80;;;;;;5113146;27;19931;-51
2022/01/15 02:37:15;;;;;;;;;;;20.00;41.80;;;;;;5134181;27;19989;-49
2022/01/15 02:39:42;;;;;;;;;;;19.90;41.70;;;;;;5115237;27;19950;-47
2022/01/15 02:42:10;;;;;;;;;;;20.00;41.80;;;;;;5116232;27;19973;-50
2022/01/15 02:44:38;;;;;;;;;;;20.00;41.80;;;;;;5147590;27;19923;-51
2022/01/15 02:49:53;;;;;;;;;;;20.00;41.80;;;;;;5132605;27;19935;-48
2022/01/15 02:52:19;;;;;;;;;;;20.00;41.80;;;;;;5114021;27;19994;-50
2022/01/15 02:54:46;;;;;;;;;;;20.00;41.80;;;;;;5131523;27;20358;-51
2022/01/15 02:57:16;;;;;;;;;;;20.00;41.80;;;;;;5115837;27;19963;-50
2022/01/15 02:59:42;;;;;;;;;;;20.00;41.80;;;;;;5134334;28;20022;-48
2022/01/15 03:02:09;;;;;;;;;;;19.90;41.70;;;;;;5111498;27;19927;-47
2022/01/15 03:04:36;;;;;;;;;;;20.00;41.80;;;;;;5113875;28;19927;-45
2022/01/15 03:07:05;;;;;;;;;;;20.00;41.80;;;;;;5115254;27;19938;-51
2022/01/15 03:09:32;;;;;;;;;;;20.00;41.70;;;;;;5120879;27;19930;-45
2022/01/15 03:12:02;;;;;;;;;;;20.00;41.70;;;;;;5118666;27;19927;-50
2022/01/15 03:14:31;;;;;;;;;;;19.90;41.60;;;;;;5121513;27;19974;-49
2022/01/15 03:16:57;;;;;;;;;;;19.90;41.60;;;;;;5118550;27;19927;-53
2022/01/15 03:19:24;;;;;;;;;;;20.00;41.70;;;;;;5123386;27;19975;-46
2022/01/15 03:21:51;;;;;;;;;;;20.00;41.70;;;;;;5117798;27;19950;-48
2022/01/15 03:24:19;;;;;;;;;;;20.00;41.70;;;;;;5117976;27;20022;-46
2022/01/15 03:26:46;;;;;;;;;;;20.00;41.70;;;;;;5118367;27;19992;-49
2022/01/15 03:29:13;;;;;;;;;;;19.90;41.60;;;;;;5119418;27;19920;-49
2022/01/15 03:31:39;;;;;;;;;;;20.00;41.70;;;;;;5115925;27;19951;-50
2022/01/15 03:34:06;;;;;;;;;;;20.00;41.70;;;;;;5117796;27;19930;-50
2022/01/15 03:36:33;;;;;;;;;;;20.00;41.60;;;;;;5114028;27;19952;-46
2022/01/15 03:39:00;;;;;;;;;;;20.00;41.60;;;;;;5117903;27;19991;-46
2022/01/15 03:41:28;;;;;;;;;;;19.90;41.50;;;;;;5151987;27;19920;-48
2022/01/15 03:43:55;;;;;;;;;;;20.00;41.60;;;;;;5138541;27;19938;-49
2022/01/15 03:46:22;;;;;;;;;;;19.90;41.50;;;;;;5118583;27;19940;-47
2022/01/15 03:48:49;;;;;;;;;;;19.90;41.50;;;;;;5135487;27;19930;-49
2022/01/15 03:51:19;;;;;;;;;;;20.00;41.60;;;;;;5117010;27;19945;-50
2022/01/15 03:53:45;;;;;;;;;;;20.00;41.60;;;;;;5135474;27;19927;-45
2022/01/15 03:56:12;;;;;;;;;;;20.00;41.60;;;;;;5117784;27;19951;-49
2022/01/15 03:58:40;;;;;;;;;;;20.00;41.60;;;;;;5116161;27;20540;-45
2022/01/15 04:01:07;;;;;;;;;;;20.00;41.60;;;;;;5130496;27;20061;-46
2022/01/15 04:03:34;;;;;;;;;;;20.00;41.60;;;;;;5117058;27;19923;-45
2022/01/15 04:06:00;;;;;;;;;;;20.00;41.60;;;;;;5116655;27;19923;-46
2022/01/15 04:08:27;;;;;;;;;;;19.90;41.50;;;;;;5115927;27;19923;-47
2022/01/15 04:10:57;;;;;;;;;;;20.00;41.50;;;;;;5135361;27;19976;-47
2022/01/15 04:13:24;;;;;;;;;;;20.00;41.50;;;;;;5116332;27;19927;-48
2022/01/15 04:15:52;;;;;;;;;;;20.00;41.50;;;;;;5122010;27;19988;-48
2022/01/15 04:18:20;;;;;;;;;;;20.00;41.50;;;;;;5110185;27;20357;-49
2022/01/15 04:20:47;;;;;;;;;;;20.00;41.50;;;;;;5133636;27;19924;-47
2022/01/15 04:23:14;;;;;;;;;;;20.00;41.50;;;;;;5116834;27;20161;-52
2022/01/15 04:25:41;;;;;;;;;;;20.00;41.40;;;;;;5135250;27;19930;-51
2022/01/15 04:28:10;;;;;;;;;;;20.00;41.50;;;;;;5115677;27;19945;-45
2022/01/15 04:30:39;;;;;;;;;;;20.00;41.50;;;;;;5120919;27;19944;-44
2022/01/15 04:33:08;;;;;;;;;;;20.00;42.00;;;;;;5132373;27;19932;-46
2022/01/15 04:35:36;;;;;;;;;;;20.00;41.40;;;;;;5117476;27;19936;-49
2022/01/15 04:38:09;;;;;;;;;;;20.00;41.50;;;;;;5135445;27;19963;-48
2022/01/15 04:40:36;;;;;;;;;;;20.00;41.40;;;;;;5114599;27;19938;-44
2022/01/15 04:43:02;;;;;;;;;;;20.00;41.40;;;;;;5117822;27;20125;-49
2022/01/15 04:45:29;;;;;;;;;;;19.90;41.30;;;;;;5115124;27;19923;-46
2022/01/15 04:47:56;;;;;;;;;;;19.90;41.40;;;;;;5117279;27;19927;-47
2022/01/15 04:50:24;;;;;;;;;;;19.90;41.30;;;;;;5134599;27;19931;-47
2022/01/15 04:52:51;;;;;;;;;;;19.90;41.30;;;;;;5117517;27;20018;-47
2022/01/15 04:55:18;;;;;;;;;;;20.00;41.50;;;;;;5100983;27;19969;-44
2022/01/15 04:57:44;;;;;;;;;;;20.00;41.50;;;;;;5116708;27;20444;-47
2022/01/15 05:00:12;;;;;;;;;;;20.00;41.40;;;;;;5115948;27;19927;-50
2022/01/15 05:02:39;;;;;;;;;;;20.00;41.40;;;;;;5118607;27;19955;-44
2022/01/15 05:05:06;;;;;;;;;;;20.00;41.40;;;;;;5118222;27;19923;-46
2022/01/15 05:07:34;;;;;;;;;;;19.90;41.30;;;;;;5118216;27;19968;-45
2022/01/15 05:10:01;;;;;;;;;;;20.00;41.40;;;;;;5119072;27;20003;-51
2022/01/15 05:12:31;;;;;;;;;;;19.90;41.30;;;;;;5109322;27;19972;-49
2022/01/15 05:14:57;;;;;;;;;;;20.00;41.40;;;;;;5133810;27;19942;-48
2022/01/15 05:17:24;;;;;;;;;;;20.00;41.40;;;;;;5117398;27;19923;-44
2022/01/15 05:19:51;;;;;;;;;;;19.90;41.30;;;;;;5115856;27;19927;-44
2022/01/15 05:22:18;;;;;;;;;;;20.00;41.30;;;;;;5135237;27;20029;-46
2022/01/15 05:24:46;;;;;;;;;;;20.00;41.30;;;;;;5115277;27;19949;-52
2022/01/15 05:27:13;;;;;;;;;;;19.90;41.20;;;;;;5130369;27;19946;-50
2022/01/15 05:29:40;;;;;;;;;;;20.00;41.30;;;;;;5115914;27;20008;-44
2022/01/15 05:32:07;;;;;;;;;;;19.90;41.20;;;;;;5116483;27;19934;-46
2022/01/15 05:34:33;;;;;;;;;;;19.90;41.20;;;;;;5112136;27;19930;-47
2022/01/15 05:37:00;;;;;;;;;;;19.90;41.20;;;;;;5114446;27;19931;-51
2022/01/15 05:39:27;;;;;;;;;;;19.90;41.80;;;;;;5114328;27;19928;-49
2022/01/15 05:41:55;;;;;;;;;;;19.90;41.20;;;;;;5134966;27;19949;-44
2022/01/15 05:44:22;;;;;;;;;;;19.90;41.20;;;;;;5113016;27;19924;-44
2022/01/15 05:46:49;;;;;;;;;;;19.90;41.20;;;;;;5113538;27;19970;-46
2022/01/15 05:49:16;;;;;;;;;;;19.90;41.20;;;;;;5116668;27;19927;-50
2022/01/15 05:51:43;;;;;;;;;;;19.90;41.20;;;;;;5115424;27;19938;-47
2022/01/15 05:54:11;;;;;;;;;;;19.90;41.20;;;;;;5114649;27;19963;-47
2022/01/15 05:56:38;;;;;;;;;;;19.90;41.10;;;;;;5119826;27;19923;-46
2022/01/15 05:59:07;;;;;;;;;;;19.90;41.10;;;;;;5116181;27;19934;-46
2022/01/15 06:01:33;;;;;;;;;;;19.90;41.10;;;;;;5115813;27;19928;-51
2022/01/15 06:04:00;;;;;;;;;;;19.90;41.10;;;;;;5115500;27;19924;-51
2022/01/15 06:06:27;;;;;;;;;;;19.90;41.10;;;;;;5130422;27;20026;-46
2022/01/15 06:08:53;;;;;;;;;;;19.90;41.10;;;;;;5133497;27;19923;-46
2022/01/15 06:11:21;;;;;;;;;;;19.90;41.10;;;;;;5117792;27;19975;-48
2022/01/15 06:13:48;;;;;;;;;;;19.90;41.10;;;;;;5132840;27;19923;-49
2022/01/15 06:16:16;;;;;;;;;;;19.90;41.10;;;;;;5132814;27;19928;-47
2022/01/15 06:18:43;;;;;;;;;;;19.90;41.10;;;;;;5111635;27;19977;-45
2022/01/15 06:21:13;;;;;;;;;;;19.90;41.10;;;;;;5132059;27;19927;-44
2022/01/15 06:23:40;;;;;;;;;;;19.90;41.10;;;;;;5115737;27;19924;-45
2022/01/15 06:26:06;;;;;;;;;;;19.90;41.10;;;;;;5114821;27;20276;-47
2022/01/15 06:28:34;;;;;;;;;;;19.90;41.10;;;;;;5120370;27;20309;-49
2022/01/15 06:31:00;;;;;;;;;;;19.90;41.10;;;;;;5116760;27;19927;-44
2022/01/15 06:33:29;;;;;;;;;;;19.90;41.00;;;;;;5118120;27;19928;-44
2022/01/15 06:35:56;;;;;;;;;;;19.90;41.00;;;;;;5115119;27;20024;-44
2022/01/15 06:38:22;;;;;;;;;;;19.90;41.00;;;;;;5114535;27;19969;-44
2022/01/15 06:40:49;;;;;;;;;;;19.90;41.00;;;;;;5128917;27;19923;-50
2022/01/15 06:43:16;;;;;;;;;;;19.90;41.00;;;;;;5117881;27;19927;-48
2022/01/15 06:45:43;;;;;;;;;;;19.90;41.10;;;;;;5115784;27;19962;-46
2022/01/15 06:48:09;;;;;;;;;;;19.90;41.00;;;;;;5114512;28;19927;-48
2022/01/15 06:50:40;;;;;;;;;;;19.90;41.00;;;;;;5134887;27;19947;-46
2022/01/15 06:53:07;;;;;;;;;;;19.90;41.00;;;;;;5114388;27;20150;-48
2022/01/15 06:55:34;;;;;;;;;;;19.90;41.30;;;;;;5115276;28;19955;-46
2022/01/15 06:58:00;;;;;;;;;;;19.90;41.00;;;;;;5116990;27;19927;-46
2022/01/15 07:00:29;;;;;;;;;;;19.90;41.00;;;;;;5112692;28;19942;-45
2022/01/15 07:03:00;;;;;;;;;;;19.90;40.90;;;;;;5129549;27;19958;-46
2022/01/15 07:05:27;;;;;;;;;;;19.90;41.00;;;;;;5114343;28;19928;-50
2022/01/15 07:07:56;;;;;;;;;;;19.90;41.00;;;;;;5127930;27;19991;-44
2022/01/15 07:10:23;;;;;;;;;;;19.90;41.00;;;;;;5112257;28;20029;-47
2022/01/15 07:12:49;;;;;;;;;;;19.90;40.90;;;;;;5127546;28;19971;-49
2022/01/15 07:15:16;;;;;;;;;;;19.90;40.90;;;;;;5114444;28;19923;-44
2022/01/15 07:17:43;;;;;;;;;;;19.90;40.90;;;;;;5112852;28;19954;-43
2022/01/15 07:20:10;;;;;;;;;;;19.90;40.90;;;;;;5114991;28;19967;-47
2022/01/15 07:22:38;;;;;;;;;;;19.90;40.90;;;;;;5132863;28;19930;-44
2022/01/15 07:25:08;;;;;;;;;;;19.90;40.90;;;;;;5133518;28;19943;-46
2022/01/15 07:27:34;;;;;;;;;;;19.90;40.90;;;;;;5129861;28;19923;-46
2022/01/15 07:30:02;;;;;;;;;;;19.90;40.90;;;;;;5114009;28;19949;-44
2022/01/15 07:32:31;;;;;;;;;;;19.90;40.90;;;;;;5113581;28;19962;-44
2022/01/15 07:34:58;;;;;;;;;;;19.90;40.90;;;;;;5111944;28;19994;-46
2022/01/15 07:37:25;;;;;;;;;;;19.90;40.90;;;;;;5113971;28;20410;-48
2022/01/15 07:39:55;;;;;;;;;;;19.90;40.90;;;;;;5114092;28;20456;-44
2022/01/15 07:42:23;;;;;;;;;;;19.90;40.90;;;;;;5131415;28;19924;-48
2022/01/15 07:44:50;;;;;;;;;;;19.90;40.80;;;;;;5147746;27;19953;-44
2022/01/15 07:47:19;;;;;;;;;;;19.90;40.90;;;;;;5113779;28;20276;-49
2022/01/15 07:49:46;;;;;;;;;;;19.90;40.90;;;;;;5113174;28;19927;-48
2022/01/15 07:52:12;;;;;;;;;;;19.90;40.90;;;;;;5110617;28;20170;-45
2022/01/15 07:54:39;;;;;;;;;;;19.90;40.90;;;;;;5112610;28;20334;-49
2022/01/15 07:57:06;;;;;;;;;;;19.90;40.90;;;;;;5111541;27;19927;-46
2022/01/15 07:59:35;;;;;;;;;;;19.90;41.00;;;;;;5115219;27;19967;-49
2022/01/15 08:02:02;;;;;;;;;;;19.90;41.00;;;;;;5150761;27;19930;-48
2022/01/15 08:04:30;;;;;;;;;;;19.90;40.90;;;;;;5136584;27;19932;-49
2022/01/15 08:06:57;;;;;;;;;;;19.90;41.00;;;;;;5114425;27;19923;-46
2022/01/15 08:09:24;;;;;;;;;;;19.90;41.00;;;;;;5134577;27;19945;-45
2022/01/15 08:11:51;;;;;;;;;;;19.90;41.00;;;;;;5134730;27;19931;-47
2022/01/15 08:14:18;;;;;;;;;;;19.90;41.00;;;;;;5113939;27;20403;-49
2022/01/15 08:16:46;;;;;;;;;;;19.90;41.10;;;;;;5115679;27;19923;-47
2022/01/15 08:19:13;;;;;;;;;;;19.90;41.10;;;;;;5115342;27;19927;-49
2022/01/15 08:21:41;;;;;;;;;;;19.90;41.10;;;;;;5134409;27;19952;-53
2022/01/15 08:24:09;;;;;;;;;;;20.00;41.20;;;;;;5113106;27;19923;-47
2022/01/15 08:26:36;;;;;;;;;;;19.90;41.20;;;;;;5113912;27;19931;-48
2022/01/15 08:29:02;;;;;;;;;;;20.00;41.20;;;;;;5113967;27;20376;-47
2022/01/15 08:31:29;;;;;;;;;;;19.90;41.20;;;;;;5113429;27;19980;-48
2022/01/15 08:33:58;;;;;;;;;;;19.90;41.20;;;;;;5116546;27;19924;-48
2022/01/15 08:36:25;;;;;;;;;;;20.00;41.30;;;;;;5116523;27;19930;-47
2022/01/15 08:38:52;;;;;;;;;;;20.00;41.30;;;;;;5128611;27;19928;-47
2022/01/15 08:41:19;;;;;;;;;;;20.00;41.30;;;;;;5136785;27;19966;-45
2022/01/15 08:43:45;;;;;;;;;;;20.00;41.30;;;;;;5132719;27;19938;-49
2022/01/15 08:46:13;;;;;;;;;;;20.00;41.30;;;;;;5118380;27;19932;-46
2022/01/15 08:48:40;;;;;;;;;;;20.00;41.30;;;;;;5112850;27;19923;-47
2022/01/15 08:51:08;;;;;;;;;;;20.00;41.30;;;;;;5115706;27;19934;-52
2022/01/15 08:53:34;;;;;;;;;;;20.00;41.30;;;;;;5132933;27;19987;-47
2022/01/15 08:56:02;;;;;;;;;;;20.00;41.30;;;;;;5112641;28;19927;-48
2022/01/15 08:58:28;;;;;;;;;;;20.00;41.30;;;;;;5118123;27;19930;-49
2022/01/15 09:00:55;;;;;;;;;;;20.00;41.30;;;;;;5114655;28;20383;-48
2022/01/15 09:03:22;;;;;;;;;;;20.00;41.30;;;;;;5130488;27;19931;-45
2022/01/15 09:05:50;;;;;;;;;;;20.00;41.30;;;;;;5111985;27;20022;-50
2022/01/15 09:08:20;;;;;;;;;;;20.00;41.20;;;;;;5127634;27;19968;-47
2022/01/15 09:10:47;;;;;;;;;;;20.00;41.20;;;;;;5115576;27;19945;-48
2022/01/15 09:13:14;;;;;;;;;;;20.00;41.20;;;;;;5115868;27;19983;-46
2022/01/15 09:15:40;;;;;;;;;;;20.00;41.20;;;;;;5113122;27;20030;-52
2022/01/15 09:18:08;;;;;;;;;;;20.00;41.20;;;;;;5130268;27;19952;-46
2022/01/15 09:20:35;;;;;;;;;;;20.00;41.20;;;;;;5139942;27;19958;-46
2022/01/15 09:23:01;;;;;;;;;;;20.00;41.20;;;;;;5117594;27;19924;-47
2022/01/15 09:25:29;;;;;;;;;;;20.00;41.30;;;;;;5121850;27;19930;-48
2022/01/15 09:30:40;;;;;;;;;;;20.00;41.30;;;;;;5133470;27;19931;-49
2022/01/15 09:33:07;;;;;;;;;;;20.00;41.30;;;;;;5116444;27;19981;-49
2022/01/15 09:35:34;;;;;;;;;;;20.00;41.30;;;;;;5114609;27;20027;-46
2022/01/15 09:38:01;;;;;;;;;;;20.00;41.30;;;;;;5132472;27;19931;-47
2022/01/15 09:40:31;;;;;;;;;;;20.00;41.30;;;;;;5112821;27;19980;-47
2022/01/15 09:42:58;;;;;;;;;;;20.00;41.40;;;;;;5114335;27;20338;-49
2022/01/15 09:45:25;;;;;;;;;;;20.00;41.40;;;;;;5130525;27;19930;-51
2022/01/15 09:47:54;;;;;;;;;;;20.00;41.40;;;;;;5114625;27;19923;-49
2022/01/15 09:50:21;;;;;;;;;;;20.00;41.40;;;;;;5103334;28;19923;-47
2022/01/15 09:52:49;;;;;;;;;;;20.00;41.40;;;;;;5111641;27;19987;-47
2022/01/15 09:55:16;;;;;;;;;;;20.00;41.40;;;;;;5132858;27;19935;-49
2022/01/15 09:57:44;;;;;;;;;;;20.00;41.40;;;;;;5113653;27;19958;-51
2022/01/15 10:00:15;;;;;;;;;;;20.00;41.40;;;;;;5111082;27;20554;-47
2022/01/15 10:02:42;;;;;;;;;;;20.00;41.40;;;;;;5109811;27;20357;-51
2022/01/15 10:05:09;;;;;;;;;;;20.00;41.40;;;;;;5106029;27;19923;-45
2022/01/15 10:07:36;;;;;;;;;;;20.00;41.40;;;;;;5098426;27;20022;-50
2022/01/15 10:10:12;;;;;;;;;;;20.00;41.40;;;;;;5113685;27;20379;-49
2022/01/15 10:12:42;;;;;;;;;;;20.00;41.40;;;;;;5111372;27;19924;-47
2022/01/15 10:15:10;;;;;;;;;;;20.00;41.40;;;;;;5125781;27;19953;-45
2022/01/15 10:17:40;;;;;;;;;;;20.00;42.00;;;;;;5146999;27;19979;-49
2022/01/15 10:20:08;;;;;;;;;;;20.00;41.40;;;;;;5111860;27;19968;-49
2022/01/15 10:22:35;;;;;;;;;;;20.00;41.40;;;;;;5111525;27;19942;-46
2022/01/15 10:25:02;;;;;;;;;;;20.00;41.40;;;;;;5112839;27;19970;-48
2022/01/15 10:27:29;;;;;;;;;;;20.00;41.40;;;;;;5089562;27;19931;-47
2022/01/15 10:29:58;;;;;;;;;;;20.10;41.50;;;;;;5132159;27;19927;-49
2022/01/15 10:32:26;;;;;;;;;;;20.10;41.60;;;;;;5126523;27;19932;-53
2022/01/15 10:34:53;;;;;;;;;;;20.10;41.60;;;;;;5119604;27;19923;-50
2022/01/15 10:37:20;;;;;;;;;;;20.10;41.60;;;;;;5129655;27;19977;-45
2022/01/15 10:39:55;;;;;;;;;;;20.10;41.60;;;;;;5112991;27;19935;-51
2022/01/15 10:42:23;;;;;;;;;;;20.10;41.60;;;;;;5108932;28;19924;-47
2022/01/15 10:44:50;;;;;;;;;;;20.10;41.60;;;;;;5119273;27;20543;-46
2022/01/15 10:47:17;;;;;;;;;;;20.10;41.60;;;;;;5095245;28;19982;-45
2022/01/15 10:49:48;;;;;;;;;;;20.10;41.60;;;;;;5108258;27;19955;-53
2022/01/15 10:52:15;;;;;;;;;;;20.10;41.60;;;;;;5128616;27;19970;-46
2022/01/15 10:54:52;;;;;;;;;;;20.10;41.60;;;;;;5115353;28;19949;-47
2022/01/15 10:57:20;;;;;;;;;;;20.10;41.70;;;;;;5114965;28;20486;-47
2022/01/15 10:59:55;;;;;;;;;;;20.10;41.60;;;;;;5109809;28;19923;-48
2022/01/15 11:02:22;;;;;;;;;;;20.10;41.60;;;;;;5141310;27;19932;-49
2022/01/15 11:04:50;;;;;;;;;;;20.10;41.60;;;;;;5101672;28;19930;-48
2022/01/15 11:07:17;;;;;;;;;;;20.10;41.60;;;;;;5132674;28;19924;-45
2022/01/15 11:09:44;;;;;;;;;;;20.10;41.70;;;;;;5112890;28;19989;-52
2022/01/15 11:12:12;;;;;;;;;;;20.10;41.70;;;;;;5113308;28;19923;-52
2022/01/15 11:14:39;;;;;;;;;;;20.10;41.70;;;;;;5111454;28;19980;-48
2022/01/15 11:17:05;;;;;;;;;;;20.10;41.60;;;;;;5130911;28;19990;-47
2022/01/15 11:19:32;;;;;;;;;;;20.10;41.70;;;;;;5106052;28;20345;-50
2022/01/15 11:22:01;;;;;;;;;;;20.10;41.60;;;;;;5129971;28;19924;-48
2022/01/15 11:24:27;;;;;;;;;;;20.10;41.60;;;;;;5111645;28;19966;-50
2022/01/15 11:26:57;;;;;;;;;;;20.10;41.60;;;;;;5109808;28;19923;-51
2022/01/15 11:29:24;;;;;;;;;;;20.10;41.70;;;;;;5129417;28;19935;-47
2022/01/15 11:31:53;;;;;;;;;;;20.10;41.70;;;;;;5132713;27;20006;-47
2022/01/15 11:34:20;;;;;;;;;;;20.10;41.70;;;;;;5112805;27;19930;-45
2022/01/15 11:36:49;;;;;;;;;;;20.10;42.30;;;;;;5135662;27;19927;-54
2022/01/15 11:39:20;;;;;;;;;;;20.10;41.60;;;;;;5117387;27;20376;-48
2022/01/15 11:41:48;;;;;;;;;;;20.10;41.60;;;;;;5117081;27;19923;-48
2022/01/15 11:44:18;;;;;;;;;;;20.10;41.60;;;;;;5117190;27;20345;-45
2022/01/15 11:46:46;;;;;;;;;;;20.10;41.60;;;;;;5116856;27;20041;-52
2022/01/15 11:49:30;;;;;;;;;;;20.20;41.70;;;;;;5116826;27;20022;-45
2022/01/15 11:51:57;;;;;;;;;;;20.10;41.70;;;;;;5122033;27;19970;-47
2022/01/15 11:54:25;;;;;;;;;;;20.20;41.80;;;;;;5130699;27;19930;-46
2022/01/15 11:56:51;;;;;;;;;;;20.20;41.80;;;;;;5115382;27;19931;-50
2022/01/15 11:59:37;;;;;;;;;;;20.10;41.60;;;;;;5130919;27;20088;-51
2022/01/15 12:02:05;;;;;;;;;;;20.20;41.80;;;;;;5129283;27;19928;-48
2022/01/15 12:04:33;;;;;;;;;;;20.20;41.80;;;;;;5115351;27;20008;-45
2022/01/15 12:07:19;;;;;;;;;;;20.20;41.80;;;;;;5096181;28;19924;-49
2022/01/15 12:09:51;;;;;;;;;;;20.20;41.80;;;;;;5132903;27;19923;-49
2022/01/15 12:12:40;;;;;;;;;;;20.20;41.80;;;;;;5133905;27;20372;-53
2022/01/15 12:15:09;;;;;;;;;;;20.20;41.80;;;;;;5115894;27;19931;-47
2022/01/15 12:17:37;;;;;;;;;;;20.20;41.80;;;;;;5119551;27;19946;-47
2022/01/15 12:20:07;;;;;;;;;;;20.20;41.80;;;;;;5119138;27;19924;-48
2022/01/15 12:22:35;;;;;;;;;;;20.20;41.80;;;;;;5126296;27;19991;-48
2022/01/15 12:25:03;;;;;;;;;;;20.20;41.80;;;;;;5127517;27;19923;-47
2022/01/15 12:27:30;;;;;;;;;;;20.20;41.80;;;;;;5149743;27;19969;-48
2022/01/15 12:29:58;;;;;;;;;;;20.20;41.80;;;;;;5097327;27;19954;-50
2022/01/15 12:32:29;;;;;;;;;;;20.20;41.80;;;;;;5115294;27;20400;-52
2022/01/15 12:34:56;;;;;;;;;;;20.20;41.80;;;;;;5132550;27;20322;-47
2022/01/15 12:37:24;;;;;;;;;;;20.20;41.80;;;;;;5115775;27;19927;-48
2022/01/15 12:39:51;;;;;;;;;;;20.20;41.80;;;;;;5113637;27;19951;-49
2022/01/15 12:42:22;;;;;;;;;;;20.20;41.80;;;;;;5115598;28;19950;-45
2022/01/15 12:44:51;;;;;;;;;;;20.20;41.90;;;;;;5115377;27;19927;-45
2022/01/15 12:47:18;;;;;;;;;;;20.20;41.80;;;;;;5133861;27;20368;-48
2022/01/15 12:49:45;;;;;;;;;;;20.20;41.80;;;;;;5114095;27;19972;-48
2022/01/15 12:52:13;;;;;;;;;;;20.20;41.80;;;;;;5115881;27;19928;-46
2022/01/15 12:54:40;;;;;;;;;;;20.20;41.90;;;;;;5115345;27;19928;-51
2022/01/15 12:57:06;;;;;;;;;;;20.20;41.80;;;;;;5100273;27;19923;-50
2022/01/15 12:59:35;;;;;;;;;;;20.20;41.80;;;;;;5118847;27;19928;-49
2022/01/15 13:02:02;;;;;;;;;;;20.20;41.90;;;;;;5115240;27;19923;-46
2022/01/15 13:04:29;;;;;;;;;;;20.20;41.80;;;;;;5133472;27;19959;-46
2022/01/15 13:07:00;;;;;;;;;;;20.20;41.80;;;;;;5108793;28;19935;-53
2022/01/15 13:09:40;;;;;;;;;;;20.20;41.90;;;;;;5111697;28;19934;-47
2022/01/15 13:12:11;;;;;;;;;;;20.20;41.90;;;;;;5109823;28;19934;-45
2022/01/15 13:14:40;;;;;;;;;;;20.20;42.40;;;;;;5112353;28;19976;-47
2022/01/15 13:17:19;;;;;;;;;;;20.20;41.90;;;;;;5148246;27;19924;-46
2022/01/15 13:19:46;;;;;;;;;;;20.20;41.90;;;;;;5133101;27;19927;-49
2022/01/15 13:22:13;;;;;;;;;;;20.20;41.90;;;;;;5101552;28;19934;-45
2022/01/15 13:24:39;;;;;;;;;;;20.20;41.90;;;;;;5128332;27;19984;-55
2022/01/15 13:27:06;;;;;;;;;;;20.20;41.90;;;;;;5131764;27;19927;-52
2022/01/15 13:29:37;;;;;;;;;;;20.20;41.90;;;;;;5103290;28;19931;-46
2022/01/15 13:32:07;;;;;;;;;;;20.20;41.90;;;;;;5112565;27;19933;-49
2022/01/15 13:34:35;;;;;;;;;;;20.20;41.90;;;;;;5132853;27;19931;-46
2022/01/15 13:37:09;;;;;;;;;;;20.20;41.90;;;;;;5112855;27;19930;-49
2022/01/15 13:39:36;;;;;;;;;;;20.20;41.90;;;;;;5114864;27;20360;-51
2022/01/15 13:42:03;;;;;;;;;;;20.20;41.90;;;;;;5114080;27;19930;-52
2022/01/15 13:44:31;;;;;;;;;;;20.20;41.90;;;;;;5111850;28;20381;-48
2022/01/15 13:47:05;;;;;;;;;;;20.20;41.90;;;;;;5109829;27;19942;-47
2022/01/15 13:53:04;;;;;;;;;;;20.20;41.90;;;;;;5095995;28;19928;-49
2022/01/15 13:55:14;;;;;;;;;;;20.20;41.90;;;;;;5113865;27;19979;-47
2022/01/15 13:57:40;;;;;;;;;;;20.20;41.90;;;;;;5131685;27;19952;-50
2022/01/15 14:00:08;;;;;;;;;;;20.20;41.90;;;;;;5114938;27;19930;-51
2022/01/15 14:02:35;;;;;;;;;;;20.20;42.00;;;;;;5104888;28;19951;-51
2022/01/15 14:05:16;;;;;;;;;;;20.20;41.90;;;;;;5115973;27;19937;-51
2022/01/15 14:07:44;;;;;;;;;;;20.20;41.90;;;;;;5110728;27;20327;-48
2022/01/15 14:10:11;;;;;;;;;;;20.20;41.90;;;;;;5111210;27;19927;-50
2022/01/15 14:12:37;;;;;;;;;;;20.20;41.90;;;;;;5096183;28;19975;-48
2022/01/15 14:15:06;;;;;;;;;;;20.20;41.90;;;;;;5093449;28;19927;-50
2022/01/15 14:17:34;;;;;;;;;;;20.20;42.00;;;;;;5132551;27;20384;-49
2022/01/15 14:20:16;;;;;;;;;;;20.20;42.00;;;;;;5117448;27;20261;-45
2022/01/15 14:22:45;;;;;;;;;;;20.20;42.00;;;;;;5112584;28;19928;-47
2022/01/15 14:25:12;;;;;;;;;;;20.20;42.10;;;;;;5112288;28;19932;-47
2022/01/15 14:27:39;;;;;;;;;;;20.20;42.10;;;;;;5110112;28;19997;-49
2022/01/15 14:30:07;;;;;;;;;;;20.20;42.10;;;;;;5112737;28;19943;-50
2022/01/15 14:32:34;;;;;;;;;;;20.20;42.10;;;;;;5113584;27;19976;-51
2022/01/15 14:35:01;;;;;;;;;;;20.20;42.10;;;;;;5113083;27;19923;-46
2022/01/15 14:37:29;;;;;;;;;;;20.20;42.10;;;;;;5099660;28;20019;-51
2022/01/15 14:39:59;;;;;;;;;;;20.20;42.10;;;;;;5111645;28;20034;-48
2022/01/15 14:42:25;;;;;;;;;;;20.20;42.10;;;;;;5111671;27;20431;-50
2022/01/15 14:44:52;;;;;;;;;;;20.20;42.20;;;;;;5104307;28;20022;-50